createdAt,value
2018-03-06T00:01:44.960Z,13.03
2018-03-06T00:04:11.099Z,11.73
2018-03-06T00:06:37.920Z,12.77
2018-03-06T00:09:03.999Z,14.33
2018-03-06T00:11:30.071Z,12.47
2018-03-06T00:13:56.912Z,16.27
2018-03-06T00:16:23.732Z,17.77
2018-03-06T00:18:49.819Z,15.37
2018-03-06T00:21:16.203Z,13.83
2018-03-06T00:23:43.074Z,13.60
2018-03-06T00:26:09.111Z,12.57
2018-03-06T00:28:35.255Z,18.00
2018-03-06T00:31:01.348Z,17.57
2018-03-06T00:33:27.460Z,17.60
2018-03-06T00:35:54.267Z,15.43
2018-03-06T00:38:20.364Z,14.50
2018-03-06T00:40:46.419Z,13.33
2018-03-06T00:43:12.507Z,13.87
2018-03-06T00:45:38.572Z,14.23
2018-03-06T00:48:05.408Z,13.30
2018-03-06T00:50:31.472Z,18.10
2018-03-06T00:52:57.559Z,14.00
2018-03-06T00:55:23.620Z,16.40
2018-03-06T00:57:49.705Z,17.07
2018-03-06T01:00:15.764Z,16.40
2018-03-06T01:02:41.847Z,18.27
2018-03-06T01:05:08.667Z,14.67
2018-03-06T01:07:34.784Z,12.57
2018-03-06T01:10:00.860Z,13.57
2018-03-06T01:12:26.943Z,12.93
2018-03-06T01:14:53.020Z,14.77
2018-03-06T01:17:19.083Z,16.40
2018-03-06T01:19:45.167Z,13.20
2018-03-06T01:22:11.233Z,14.13
2018-03-06T01:24:37.323Z,17.40
2018-03-06T01:27:03.404Z,20.13
2018-03-06T01:29:30.244Z,17.23
2018-03-06T01:31:57.099Z,17.87
2018-03-06T01:34:23.160Z,16.43
2018-03-06T01:36:49.242Z,18.17
2018-03-06T01:39:15.340Z,21.63
2018-03-06T01:41:41.412Z,17.13
2018-03-06T01:44:07.496Z,17.53
2018-03-06T01:46:33.603Z,19.93
2018-03-06T01:48:59.692Z,18.07
2018-03-06T01:51:25.760Z,18.33
2018-03-06T01:53:51.851Z,19.73
2018-03-06T01:56:17.924Z,18.07
2018-03-06T01:58:44.759Z,16.57
2018-03-06T02:01:11.567Z,18.77
2018-03-06T02:03:37.661Z,15.30
2018-03-06T02:06:03.736Z,16.50
2018-03-06T02:08:30.580Z,21.97
2018-03-06T02:10:57.401Z,17.63
2018-03-06T02:13:23.489Z,21.60
2018-03-06T02:15:49.563Z,22.10
2018-03-06T02:18:16.400Z,18.20
2018-03-06T02:20:42.477Z,15.00
2018-03-06T02:23:08.540Z,13.30
2018-03-06T02:25:34.623Z,14.80
2018-03-06T02:28:00.734Z,15.73
2018-03-06T02:30:26.815Z,20.23
2018-03-06T02:32:52.891Z,19.07
2018-03-06T02:35:18.978Z,13.53
2018-03-06T02:37:45.802Z,16.77
2018-03-06T02:40:11.884Z,19.20
2018-03-06T02:42:37.948Z,17.20
2018-03-06T02:45:04.027Z,14.67
2018-03-06T02:47:30.141Z,18.23
2018-03-06T02:49:56.224Z,25.30
2018-03-06T02:52:23.043Z,20.63
2018-03-06T02:54:49.123Z,23.83
2018-03-06T02:57:15.187Z,20.90
2018-03-06T02:59:41.272Z,26.50
2018-03-06T03:02:07.353Z,22.93
2018-03-06T03:04:33.420Z,23.17
2018-03-06T03:06:59.490Z,21.20
2018-03-06T03:09:25.569Z,22.10
2018-03-06T03:11:51.631Z,26.10
2018-03-06T03:14:17.712Z,21.07
2018-03-06T03:16:43.775Z,21.37
2018-03-06T03:19:09.859Z,27.97
2018-03-06T03:21:35.920Z,26.47
2018-03-06T03:24:02.005Z,29.43
2018-03-06T03:26:28.085Z,27.00
2018-03-06T03:28:54.919Z,26.30
2018-03-06T03:31:20.993Z,26.07
2018-03-06T03:33:47.076Z,27.47
2018-03-06T03:36:13.903Z,27.77
2018-03-06T03:38:39.968Z,21.80
2018-03-06T03:41:06.051Z,20.77
2018-03-06T03:43:32.115Z,18.87
2018-03-06T03:45:58.183Z,21.83
2018-03-06T03:48:24.247Z,23.97
2018-03-06T03:50:51.063Z,20.33
2018-03-06T03:53:17.128Z,26.50
2018-03-06T03:55:43.203Z,36.73
2018-03-06T03:58:09.308Z,38.30
2018-03-06T04:00:35.391Z,28.43
2018-03-06T04:03:01.461Z,26.90
2018-03-06T04:05:27.553Z,38.90
2018-03-06T04:07:53.603Z,25.27
2018-03-06T04:10:20.420Z,29.00
2018-03-06T04:12:46.491Z,29.57
2018-03-06T04:15:12.556Z,26.37
2018-03-06T04:17:38.612Z,22.27
2018-03-06T04:20:04.696Z,23.90
2018-03-06T04:22:30.756Z,28.50
2018-03-06T04:24:56.828Z,30.63
2018-03-06T04:27:22.901Z,30.10
2018-03-06T04:29:48.975Z,32.20
2018-03-06T04:32:15.037Z,28.00
2018-03-06T04:34:41.123Z,28.97
2018-03-06T04:37:07.183Z,28.93
2018-03-06T04:39:33.267Z,34.10
2018-03-06T04:42:00.066Z,28.10
2018-03-06T04:44:26.126Z,29.80
2018-03-06T04:46:52.935Z,32.93
2018-03-06T04:49:19.001Z,43.43
2018-03-06T04:51:45.088Z,36.60
2018-03-06T04:54:11.148Z,57.13
2018-03-06T04:56:37.227Z,63.43
2018-03-06T04:59:03.304Z,59.10
2018-03-06T05:01:29.376Z,67.83
2018-03-06T05:03:56.204Z,157.47
2018-03-06T05:06:22.279Z,134.30
2018-03-06T05:08:48.343Z,131.03
2018-03-06T05:11:14.433Z,116.17
2018-03-06T05:13:40.495Z,92.67
2018-03-06T05:16:06.560Z,78.53
2018-03-06T05:18:32.624Z,62.37
2018-03-06T05:20:58.707Z,61.97
2018-03-06T05:23:24.768Z,57.73
2018-03-06T05:25:50.844Z,53.73
2018-03-06T05:28:17.660Z,52.83
2018-03-06T05:30:43.732Z,45.63
2018-03-06T05:33:09.808Z,48.20
2018-03-06T05:35:35.885Z,46.27
2018-03-06T05:38:01.952Z,47.93
2018-03-06T05:40:28.110Z,45.80
2018-03-06T05:42:54.184Z,45.40
2018-03-06T05:45:20.255Z,43.77
2018-03-06T05:47:46.487Z,43.33
2018-03-06T05:50:12.583Z,42.00
2018-03-06T05:52:38.652Z,42.60
2018-03-06T05:55:04.739Z,46.77
2018-03-06T05:57:31.559Z,41.70
2018-03-06T05:59:57.673Z,45.43
2018-03-06T06:02:23.743Z,43.90
2018-03-06T06:04:51.351Z,50.00
2018-03-06T06:07:17.440Z,49.03
2018-03-06T06:09:43.500Z,48.13
2018-03-06T06:12:09.581Z,47.80
2018-03-06T06:14:35.639Z,55.20
2018-03-06T06:17:01.703Z,45.70
2018-03-06T06:19:28.503Z,49.37
2018-03-06T06:21:54.564Z,43.63
2018-03-06T06:24:21.381Z,43.27
2018-03-06T06:26:47.444Z,40.40
2018-03-06T06:29:13.508Z,45.43
2018-03-06T06:31:40.317Z,46.83
2018-03-06T06:34:06.379Z,41.67
2018-03-06T06:36:32.448Z,42.67
2018-03-06T06:38:58.559Z,52.77
2018-03-06T06:41:25.376Z,59.37
2018-03-06T06:43:51.432Z,64.87
2018-03-06T06:46:18.245Z,57.40
2018-03-06T06:48:44.316Z,57.93
2018-03-06T06:51:10.383Z,56.20
2018-03-06T06:53:36.440Z,49.77
2018-03-06T06:56:03.236Z,53.83
2018-03-06T06:58:29.293Z,50.87
2018-03-06T07:00:56.212Z,50.13
2018-03-06T07:03:22.268Z,46.27
2018-03-06T07:05:49.060Z,50.40
2018-03-06T07:08:15.128Z,51.57
2018-03-06T07:10:41.191Z,54.33
2018-03-06T07:13:07.265Z,47.77
2018-03-06T07:15:34.060Z,52.17
2018-03-06T07:18:00.125Z,44.87
2018-03-06T07:20:26.928Z,43.77
2018-03-06T07:22:52.991Z,42.23
2018-03-06T07:25:19.781Z,42.93
2018-03-06T07:27:45.852Z,39.10
2018-03-06T07:30:12.660Z,40.30
2018-03-06T07:32:38.733Z,38.00
2018-03-06T07:35:04.813Z,40.10
2018-03-06T07:37:30.899Z,39.23
2018-03-06T07:39:56.959Z,41.80
2018-03-06T07:42:24.616Z,42.77
2018-03-06T07:44:50.676Z,44.73
2018-03-06T07:47:17.483Z,45.30
2018-03-06T07:49:43.548Z,47.40
2018-03-06T07:52:09.616Z,42.83
2018-03-06T07:54:35.684Z,45.20
2018-03-06T07:57:02.506Z,45.13
2018-03-06T07:59:28.564Z,43.57
2018-03-06T08:01:54.639Z,47.20
2018-03-06T08:04:20.696Z,49.60
2018-03-06T08:06:47.508Z,44.60
2018-03-06T08:09:13.563Z,48.77
2018-03-06T08:11:39.654Z,46.40
2018-03-06T08:14:05.692Z,50.87
2018-03-06T08:16:32.495Z,50.13
2018-03-06T08:18:58.568Z,46.93
2018-03-06T08:21:25.367Z,50.87
2018-03-06T08:23:51.478Z,51.27
2018-03-06T08:26:17.508Z,49.93
2018-03-06T08:28:43.768Z,52.77
2018-03-06T08:31:10.571Z,51.03
2018-03-06T08:33:36.655Z,54.83
2018-03-06T08:36:02.696Z,55.23
2018-03-06T08:38:28.759Z,55.33
2018-03-06T08:40:54.812Z,53.30
2018-03-06T08:43:20.880Z,54.67
2018-03-06T08:45:47.464Z,54.27
2018-03-06T08:48:14.669Z,52.43
2018-03-06T08:50:40.728Z,53.20
2018-03-06T08:53:07.548Z,53.37
2018-03-06T08:55:33.592Z,54.20
2018-03-06T08:58:00.399Z,49.30
2018-03-06T09:00:26.449Z,47.00
2018-03-06T09:02:53.256Z,52.23
2018-03-06T09:05:19.304Z,50.20
2018-03-06T09:07:45.367Z,52.90
2018-03-06T09:10:11.420Z,48.30
2018-03-06T09:12:37.492Z,49.23
2018-03-06T09:15:04.296Z,47.23
2018-03-06T09:17:30.385Z,47.50
2018-03-06T09:19:56.440Z,49.27
2018-03-06T09:22:22.517Z,47.83
2018-03-06T09:24:48.568Z,47.27
2018-03-06T09:27:14.628Z,47.90
2018-03-06T09:29:40.688Z,48.80
2018-03-06T09:32:06.749Z,45.57
2018-03-06T09:34:33.617Z,45.67
2018-03-06T09:37:00.423Z,45.73
2018-03-06T09:39:26.504Z,52.37
2018-03-06T09:41:52.572Z,50.67
2018-03-06T09:44:18.644Z,56.67
2018-03-06T09:46:45.444Z,51.43
2018-03-06T09:49:11.520Z,54.87
2018-03-06T09:51:37.587Z,55.13
2018-03-06T09:54:03.684Z,58.33
2018-03-06T09:56:29.743Z,58.67
2018-03-06T09:58:55.823Z,57.10
2018-03-06T10:01:21.872Z,58.50
2018-03-06T10:03:47.953Z,64.53
2018-03-06T10:06:14.048Z,59.30
2018-03-06T10:08:40.904Z,62.80
2018-03-06T10:11:07.733Z,67.77
2018-03-06T10:13:34.590Z,62.97
2018-03-06T10:16:00.707Z,67.93
2018-03-06T10:18:27.553Z,65.30
2018-03-06T10:20:54.376Z,67.20
2018-03-06T10:23:20.488Z,63.77
2018-03-06T10:25:46.685Z,61.87
2018-03-06T10:28:12.920Z,66.60
2018-03-06T10:30:39.021Z,67.80
2018-03-06T10:33:05.137Z,65.10
2018-03-06T10:35:31.224Z,65.53
2018-03-06T10:37:57.333Z,72.33
2018-03-06T10:40:23.421Z,66.33
2018-03-06T10:42:49.509Z,61.03
2018-03-06T10:45:16.349Z,68.30
2018-03-06T10:47:43.192Z,67.23
2018-03-06T10:50:10.029Z,68.90
2018-03-06T10:52:36.857Z,68.27
2018-03-06T10:55:03.710Z,68.93
2018-03-06T10:57:29.813Z,68.63
2018-03-06T10:59:55.905Z,68.33
2018-03-06T11:02:28.222Z,66.93
2018-03-06T11:04:55.037Z,64.30
2018-03-06T11:07:21.091Z,75.03
2018-03-06T11:09:47.896Z,71.10
2018-03-06T11:12:13.946Z,67.97
2018-03-06T11:14:40.763Z,70.73
2018-03-06T11:17:06.874Z,68.10
2018-03-06T11:19:32.947Z,73.53
2018-03-06T11:21:59.049Z,75.87
2018-03-06T11:24:25.108Z,75.57
2018-03-06T11:26:51.161Z,71.93
2018-03-06T11:29:17.237Z,69.13
2018-03-06T11:31:44.023Z,70.43
2018-03-06T11:34:10.104Z,70.27
2018-03-06T11:36:36.156Z,70.03
2018-03-06T11:39:02.236Z,68.53
2018-03-06T11:41:29.035Z,71.57
2018-03-06T11:43:55.108Z,71.97
2018-03-06T11:46:21.905Z,74.03
2018-03-06T11:48:47.972Z,69.60
2018-03-06T11:51:14.020Z,68.00
2018-03-06T11:53:40.104Z,71.70
2018-03-06T11:56:06.904Z,69.67
2018-03-06T11:58:32.972Z,71.23
2018-03-06T12:00:59.783Z,67.43
2018-03-06T12:03:25.831Z,66.17
2018-03-06T12:05:52.653Z,67.80
2018-03-06T12:08:18.699Z,70.40
2018-03-06T12:10:45.559Z,63.80
2018-03-06T12:13:11.620Z,57.60
2018-03-06T12:15:37.696Z,56.67
2018-03-06T12:18:03.755Z,61.87
2018-03-06T12:20:29.827Z,64.63
2018-03-06T12:22:56.623Z,60.33
2018-03-06T12:25:22.705Z,59.17
2018-03-06T12:27:48.764Z,57.90
2018-03-06T12:30:14.847Z,58.97
2018-03-06T12:32:41.636Z,60.50
2018-03-06T12:35:07.728Z,59.47
2018-03-06T12:37:33.804Z,59.97
2018-03-06T12:39:59.855Z,61.70
2018-03-06T12:42:25.924Z,60.17
2018-03-06T12:44:52.009Z,62.77
2018-03-06T12:47:18.071Z,60.77
2018-03-06T12:49:44.153Z,62.03
2018-03-06T12:52:10.215Z,62.30
2018-03-06T12:54:36.304Z,64.23
2018-03-06T12:57:02.361Z,60.87
2018-03-06T12:59:28.432Z,61.20
2018-03-06T13:01:55.247Z,65.77
2018-03-06T13:04:21.336Z,65.93
2018-03-06T13:06:47.395Z,66.13
2018-03-06T13:09:13.465Z,70.97
2018-03-06T13:11:39.548Z,65.23
2018-03-06T13:14:06.356Z,64.80
2018-03-06T13:16:32.449Z,66.97
2018-03-06T13:18:58.506Z,72.03
2018-03-06T13:21:24.599Z,70.53
2018-03-06T13:23:50.679Z,67.43
2018-03-06T13:26:17.507Z,74.53
2018-03-06T13:28:43.567Z,67.87
2018-03-06T13:31:09.648Z,69.17
2018-03-06T13:33:35.719Z,67.20
2018-03-06T13:36:01.802Z,63.07
2018-03-06T13:38:27.859Z,70.37
2018-03-06T13:40:54.730Z,73.33
2018-03-06T13:43:20.759Z,69.67
2018-03-06T13:45:46.872Z,66.47
2018-03-06T13:48:12.980Z,71.83
2018-03-06T13:50:39.056Z,65.00
2018-03-06T13:53:05.116Z,65.03
2018-03-06T13:55:31.228Z,66.80
2018-03-06T13:57:58.036Z,65.63
2018-03-06T14:00:24.115Z,62.93
2018-03-06T14:02:50.175Z,64.03
2018-03-06T14:05:16.248Z,66.33
2018-03-06T14:07:43.063Z,65.10
2018-03-06T14:10:09.232Z,64.30
2018-03-06T14:12:35.296Z,69.03
2018-03-06T14:15:01.373Z,66.67
2018-03-06T14:17:27.456Z,65.30
2018-03-06T14:19:53.516Z,68.37
2018-03-06T14:22:19.584Z,63.83
2018-03-06T14:24:45.645Z,67.93
2018-03-06T14:27:11.721Z,66.23
2018-03-06T14:29:37.896Z,66.23
2018-03-06T14:32:03.968Z,65.27
2018-03-06T14:34:30.053Z,67.20
2018-03-06T14:36:56.131Z,66.93
2018-03-06T14:39:22.192Z,73.77
2018-03-06T14:41:48.266Z,74.67
2018-03-06T14:44:14.325Z,73.63
2018-03-06T14:46:41.148Z,69.97
2018-03-06T14:49:07.280Z,71.20
2018-03-06T14:51:34.100Z,71.50
2018-03-06T14:54:00.177Z,70.77
2018-03-06T14:56:26.263Z,81.90
2018-03-06T14:58:52.316Z,79.10
2018-03-06T15:01:18.380Z,80.40
2018-03-06T15:03:44.704Z,80.17
2018-03-06T15:06:10.792Z,77.43
2018-03-06T15:08:36.852Z,83.30
2018-03-06T15:11:03.669Z,80.90
2018-03-06T15:13:29.722Z,84.87
2018-03-06T15:15:55.804Z,82.43
2018-03-06T15:18:21.861Z,78.80
2018-03-06T15:20:47.948Z,76.90
2018-03-06T15:23:14.004Z,75.77
2018-03-06T15:25:40.063Z,71.60
2018-03-06T15:28:06.892Z,77.03
2018-03-06T15:30:32.961Z,78.60
2018-03-06T15:32:59.073Z,80.43
2018-03-06T15:35:25.144Z,82.00
2018-03-06T15:37:51.217Z,81.97
2018-03-06T15:40:17.295Z,84.17
2018-03-06T15:42:43.364Z,81.67
2018-03-06T15:45:09.416Z,86.23
2018-03-06T15:47:35.489Z,90.40
2018-03-06T15:50:02.276Z,87.17
2018-03-06T15:52:28.354Z,90.17
2018-03-06T15:54:55.156Z,92.23
2018-03-06T15:57:21.223Z,92.97
2018-03-06T15:59:48.032Z,92.20
2018-03-06T16:02:14.124Z,94.07
2018-03-06T16:04:40.188Z,95.10
2018-03-06T16:07:06.273Z,98.27
2018-03-06T16:09:32.368Z,98.77
2018-03-06T16:11:58.481Z,99.40
2018-03-06T16:14:25.275Z,102.67
2018-03-06T16:16:51.352Z,103.73
2018-03-06T16:19:17.420Z,105.20
2018-03-06T16:21:43.492Z,105.13
2018-03-06T16:24:10.279Z,105.10
2018-03-06T16:26:36.352Z,102.70
2018-03-06T16:29:03.160Z,101.20
2018-03-06T16:31:29.235Z,106.57
2018-03-06T16:33:55.296Z,103.53
2018-03-06T16:36:21.388Z,109.83
2018-03-06T16:38:47.540Z,108.90
2018-03-06T16:41:15.832Z,110.77
2018-03-06T16:43:43.974Z,109.37
2018-03-06T16:46:10.304Z,110.77
2018-03-06T16:48:36.378Z,113.30
2018-03-06T16:51:03.807Z,102.33
2018-03-06T16:53:31.206Z,110.17
2018-03-06T16:55:59.268Z,112.27
2018-03-06T16:58:25.936Z,110.87
2018-03-06T17:00:52.019Z,103.90
2018-03-06T17:03:18.823Z,113.90
2018-03-06T17:05:44.880Z,115.30
2018-03-06T17:08:11.710Z,108.47
2018-03-06T17:10:38.524Z,114.83
2018-03-06T17:13:04.604Z,109.33
2018-03-06T17:15:30.675Z,114.10
2018-03-06T17:17:56.884Z,116.43
2018-03-06T17:20:22.935Z,109.80
2018-03-06T17:22:49.028Z,116.60
2018-03-06T17:25:15.084Z,109.67
2018-03-06T17:27:41.185Z,110.27
2018-03-06T17:30:07.268Z,107.77
2018-03-06T17:32:33.336Z,114.00
2018-03-06T17:35:00.152Z,113.40
2018-03-06T17:37:26.227Z,111.63
2018-03-06T17:39:53.051Z,114.87
2018-03-06T17:42:19.132Z,111.43
2018-03-06T17:44:45.208Z,109.67
2018-03-06T17:47:11.285Z,113.47
2018-03-06T17:49:37.380Z,112.40
2018-03-06T17:52:03.456Z,114.87
2018-03-06T17:54:29.776Z,111.00
2018-03-06T17:56:56.711Z,110.80
2018-03-06T17:59:22.780Z,108.67
2018-03-06T18:01:49.588Z,109.73
2018-03-06T18:04:15.670Z,108.33
2018-03-06T18:06:41.741Z,113.73
2018-03-06T18:09:07.817Z,115.57
2018-03-06T18:11:33.885Z,115.00
2018-03-06T18:13:59.969Z,111.03
2018-03-06T18:16:26.063Z,115.70
2018-03-06T18:18:52.885Z,116.40
2018-03-06T18:21:18.947Z,121.30
2018-03-06T18:23:45.012Z,115.00
2018-03-06T18:26:11.103Z,108.40
2018-03-06T18:28:37.195Z,109.83
2018-03-06T18:31:04.000Z,114.23
2018-03-06T18:33:30.117Z,106.07
2018-03-06T18:35:56.181Z,112.90
2018-03-06T18:38:22.996Z,108.43
2018-03-06T18:40:49.060Z,111.30
2018-03-06T18:43:15.128Z,109.73
2018-03-06T18:45:41.192Z,108.87
2018-03-06T18:48:08.008Z,109.40
2018-03-06T18:50:46.340Z,107.20
2018-03-06T18:53:12.384Z,111.43
2018-03-06T18:55:38.436Z,113.67
2018-03-06T18:58:04.515Z,110.93
2018-03-06T19:03:47.923Z,114.00
2018-03-06T19:06:23.991Z,118.87
2018-03-06T19:08:52.238Z,112.13
2018-03-06T19:11:20.538Z,114.27
2018-03-06T19:13:49.495Z,109.83
2018-03-06T19:16:17.768Z,110.00
2018-03-06T19:18:46.012Z,107.10
2018-03-06T19:21:15.052Z,113.10
2018-03-06T19:23:43.342Z,114.93
2018-03-06T19:26:11.576Z,105.73
2018-03-06T19:28:39.834Z,110.40
2018-03-06T19:31:08.841Z,112.43
2018-03-06T19:33:37.093Z,106.27
2018-03-06T19:36:06.106Z,109.97
2018-03-06T19:38:34.352Z,117.83
2018-03-06T19:41:03.351Z,116.30
2018-03-06T19:43:32.371Z,117.03
2018-03-06T19:46:00.614Z,117.50
2018-03-06T19:48:28.903Z,119.83
2018-03-06T19:50:57.892Z,122.50
2018-03-06T19:53:26.150Z,118.67
2018-03-06T19:55:55.168Z,115.37
2018-03-06T19:58:23.422Z,116.33
2018-03-06T20:00:52.425Z,118.37
2018-03-06T20:03:21.485Z,118.03
2018-03-06T20:05:49.711Z,116.37
2018-03-06T20:08:17.947Z,118.03
2018-03-06T20:10:46.978Z,117.33
2018-03-06T20:13:15.226Z,119.73
2018-03-06T20:15:44.259Z,111.93
2018-03-06T20:18:12.498Z,119.73
2018-03-06T20:20:40.745Z,113.70
2018-03-06T20:23:08.987Z,120.40
2018-03-06T20:25:42.944Z,119.10
2018-03-06T20:28:11.947Z,123.30
2018-03-06T20:30:45.953Z,122.87
2018-03-06T20:33:17.108Z,122.60
2018-03-06T20:35:45.355Z,118.17
2018-03-06T20:38:20.056Z,124.13
2018-03-06T20:40:48.306Z,117.53
2018-03-06T20:43:16.540Z,121.13
2018-03-06T20:48:47.727Z,116.67
2018-03-06T20:51:15.980Z,120.77
2018-03-06T20:56:49.827Z,113.03
2018-03-06T20:59:18.081Z,122.17
2018-03-06T21:01:46.319Z,119.30
2018-03-06T21:04:14.569Z,115.50
2018-03-06T21:06:42.805Z,113.07
2018-03-06T21:09:11.053Z,109.57
2018-03-06T21:11:40.060Z,120.47
2018-03-06T21:14:09.067Z,120.73
2018-03-06T21:16:37.312Z,112.40
2018-03-06T21:19:06.332Z,116.43
2018-03-06T21:21:34.571Z,114.57
2018-03-06T21:24:03.569Z,121.77
2018-03-06T21:26:32.583Z,119.37
2018-03-06T21:29:00.822Z,120.47
2018-03-06T21:31:29.063Z,121.73
2018-03-06T21:33:57.300Z,113.67
2018-03-06T21:36:25.560Z,119.47
2018-03-06T21:38:54.566Z,113.50
2018-03-06T21:41:22.821Z,118.03
2018-03-06T21:43:51.825Z,119.13
2018-03-06T21:46:20.133Z,123.63
2018-03-06T21:48:49.140Z,113.63
2018-03-06T21:51:17.376Z,114.03
2018-03-06T21:53:45.645Z,117.43
2018-03-06T21:56:13.856Z,116.37
2018-03-06T21:58:42.093Z,114.67
2018-03-06T22:01:10.348Z,127.80
2018-03-06T22:03:39.349Z,121.47
2018-03-06T22:06:08.360Z,131.30
2018-03-06T22:08:36.613Z,125.80
2018-03-06T22:11:05.620Z,116.73
2018-03-06T22:13:33.859Z,124.53
2018-03-06T22:16:02.106Z,130.33
2018-03-06T22:18:30.367Z,119.10
2018-03-06T22:20:58.592Z,125.03
2018-03-06T22:23:27.588Z,127.37
2018-03-06T22:25:56.603Z,119.80
2018-03-06T22:28:24.844Z,124.07
2018-03-06T22:30:53.865Z,127.17
2018-03-06T22:33:22.092Z,129.70
2018-03-06T22:35:50.341Z,125.03
2018-03-06T22:38:18.580Z,114.80
2018-03-06T22:40:46.832Z,124.67
2018-03-06T22:43:15.823Z,128.90
2018-03-06T22:45:44.835Z,119.10
2018-03-06T22:48:13.081Z,124.67
2018-03-06T22:50:41.332Z,115.90
2018-03-06T22:53:09.564Z,112.13
2018-03-06T22:55:37.821Z,119.00
2018-03-06T22:58:06.820Z,117.27
2018-03-06T23:00:35.080Z,112.27
2018-03-06T23:03:04.072Z,119.80
2018-03-06T23:05:33.088Z,117.17
2018-03-06T23:08:01.325Z,112.03
2018-03-06T23:10:29.571Z,118.43
2018-03-06T23:12:57.805Z,124.90
2018-03-06T23:15:26.040Z,123.97
2018-03-06T23:17:54.290Z,109.20
2018-03-06T23:20:22.529Z,116.27
2018-03-06T23:22:50.762Z,117.43
2018-03-06T23:25:19.001Z,111.37
2018-03-06T23:27:47.327Z,115.57
2018-03-06T23:30:16.320Z,117.73
2018-03-06T23:32:45.331Z,122.33
2018-03-06T23:35:13.586Z,114.57
2018-03-06T23:37:42.597Z,125.83
2018-03-06T23:40:10.835Z,120.13
2018-03-06T23:42:39.075Z,122.77
2018-03-06T23:45:07.307Z,118.17
2018-03-06T23:47:36.377Z,119.00
2018-03-06T23:50:04.612Z,113.43
2018-03-06T23:52:32.868Z,121.47
2018-03-06T23:55:01.108Z,117.77
2018-03-06T23:57:30.119Z,116.47
2018-03-06T23:59:58.353Z,122.10
